Time;durP1;ratioP1;P1;durP2;ratioP2;P2;SDS_P1;SDS_P2;PMS_P1;PMS_P2;Temp;Humidity;BMP_temperature;BMP_pressure;BME280_temperature;BME280_humidity;BME280_pressure;Samples;Min_cycle;Max_cycle;Signal;HPM_P1;HPM_P2
2023/05/05 00:00:27;;;;;;;6.13;4.67;;;12.00;1.00;;;;;;6290578;22;20483;-87
2023/05/05 00:02:54;;;;;;;5.07;3.97;;;11.80;1.00;;;;;;6291291;22;20391;-86
2023/05/05 00:05:22;;;;;;;8.17;3.90;;;;;;;;;;6291927;22;20391;-88
2023/05/05 00:07:49;;;;;;;10.30;4.40;;;12.00;99.90;;;;;;6300240;22;20387;-87
2023/05/05 00:10:18;;;;;;;8.30;4.90;;;11.80;1.00;;;;;;6296532;22;20417;-86
2023/05/05 00:12:45;;;;;;;4.37;3.97;;;11.90;99.90;;;;;;6293074;22;20568;-87
2023/05/05 00:15:12;;;;;;;5.53;4.00;;;11.90;1.00;;;;;;6297038;22;20384;-87
2023/05/05 00:17:41;;;;;;;5.13;4.57;;;11.90;1.00;;;;;;6287803;22;20405;-87
2023/05/05 00:20:09;;;;;;;5.50;4.23;;;11.90;1.00;;;;;;6288350;22;20420;-87
2023/05/05 00:22:36;;;;;;;6.40;4.00;;;;;;;;;;6289924;22;20405;-89
2023/05/05 00:25:03;;;;;;;12.43;4.87;;;11.80;1.00;;;;;;6301198;22;20406;-88
2023/05/05 00:27:32;;;;;;;6.70;4.40;;;11.90;1.00;;;;;;6301636;22;20469;-88
2023/05/05 00:29:58;;;;;;;6.70;4.37;;;11.80;99.90;;;;;;6293627;22;20468;-88
2023/05/05 00:32:25;;;;;;;6.97;4.10;;;11.80;99.90;;;;;;6294795;22;20393;-87
2023/05/05 00:34:52;;;;;;;10.10;4.30;;;;;;;;;;6294951;22;20420;-86
2023/05/05 00:37:19;;;;;;;11.33;4.83;;;11.80;99.90;;;;;;6298242;22;20431;-87
2023/05/05 00:39:46;;;;;;;6.30;4.10;;;11.70;1.00;;;;;;6293178;22;20456;-87
2023/05/05 00:42:13;;;;;;;4.77;3.83;;;11.70;1.00;;;;;;6286243;22;20409;-87
2023/05/05 00:44:42;;;;;;;6.70;3.63;;;11.70;1.00;;;;;;6284115;22;20408;-88
2023/05/05 00:47:09;;;;;;;5.93;4.53;;;12.00;1.00;;;;;;6282933;22;20405;-88
2023/05/05 00:49:38;;;;;;;16.83;4.80;;;11.60;1.00;;;;;;6297393;22;20405;-89
2023/05/05 00:52:06;;;;;;;5.40;3.33;;;11.60;1.00;;;;;;6306442;22;20397;-90
2023/05/05 00:54:33;;;;;;;4.87;4.13;;;11.50;1.00;;;;;;6305970;22;20446;-88
2023/05/05 00:57:01;;;;;;;4.10;3.70;;;11.50;1.00;;;;;;6305582;22;20381;-87
2023/05/05 00:59:30;;;;;;;6.40;3.83;;;11.50;1.00;;;;;;6282302;22;20475;-86
2023/05/05 01:01:58;;;;;;;6.77;4.33;;;11.50;1.00;;;;;;6284323;22;20440;-85
2023/05/05 01:04:26;;;;;;;6.77;4.43;;;11.20;1.00;;;;;;6303624;22;20413;-87
2023/05/05 01:07:07;;;;;;;5.13;3.50;;;11.40;1.00;;;;;;6291845;22;20436;-87
2023/05/05 01:09:42;;;;;;;7.63;3.50;;;11.30;1.00;;;;;;6282985;22;20710;-87
2023/05/05 01:12:22;;;;;;;5.63;5.03;;;11.40;1.00;;;;;;6284307;22;20368;-87
2023/05/05 01:15:01;;;;;;;5.43;4.20;;;11.20;1.00;;;;;;6281966;22;20413;-87
2023/05/05 01:17:36;;;;;;;6.23;4.30;;;11.20;1.00;;;;;;6286184;22;20424;-86
2023/05/05 01:20:14;;;;;;;8.53;4.30;;;11.30;1.00;;;;;;6301132;22;20440;-87
2023/05/05 01:22:45;;;;;;;5.43;4.43;;;11.30;1.00;;;;;;6294701;22;20385;-86
2023/05/05 01:25:35;;;;;;;9.77;4.27;;;11.30;1.00;;;;;;6292268;22;20428;-86
2023/05/05 01:28:19;;;;;;;8.27;4.70;;;11.20;1.00;;;;;;6292370;22;20372;-86
2023/05/05 01:31:06;;;;;;;5.50;3.27;;;11.20;1.00;;;;;;6290453;22;20441;-86
2023/05/05 01:33:41;;;;;;;7.40;3.90;;;11.20;1.00;;;;;;6292206;22;20381;-86
2023/05/05 01:36:21;;;;;;;5.70;3.73;;;11.10;1.00;;;;;;6295099;22;20439;-85
2023/05/05 01:38:51;;;;;;;7.97;4.40;;;11.30;1.00;;;;;;6301223;22;20411;-85
2023/05/05 01:41:24;;;;;;;4.43;3.97;;;11.10;1.00;;;;;;6289617;22;20726;-86
2023/05/05 01:43:52;;;;;;;4.40;3.70;;;10.90;1.00;;;;;;6292129;22;20386;-85
2023/05/05 01:46:23;;;;;;;6.37;3.87;;;11.40;1.00;;;;;;6290902;22;20416;-87
2023/05/05 01:48:52;;;;;;;5.70;3.50;;;11.20;1.00;;;;;;6291950;22;20364;-86
2023/05/05 01:51:23;;;;;;;5.67;3.67;;;11.00;1.00;;;;;;6291982;22;20405;-86
2023/05/05 01:53:53;;;;;;;5.60;4.10;;;11.00;1.00;;;;;;6292176;22;20825;-86
2023/05/05 01:56:22;;;;;;;5.70;4.37;;;11.00;1.00;;;;;;6292896;22;20390;-86
2023/05/05 01:58:50;;;;;;;5.00;3.83;;;10.90;1.00;;;;;;6291895;22;20453;-86
2023/05/05 02:01:20;;;;;;;4.50;4.10;;;11.00;1.00;;;;;;6291049;22;20472;-88
2023/05/05 02:03:49;;;;;;;4.37;3.40;;;11.00;1.00;;;;;;6290862;22;20397;-85
2023/05/05 02:06:19;;;;;;;5.43;3.80;;;11.00;1.00;;;;;;6290224;22;20405;-86
2023/05/05 02:08:47;;;;;;;8.43;5.00;;;10.80;1.00;;;;;;6291004;22;20410;-86
2023/05/05 02:11:15;;;;;;;5.90;3.90;;;10.70;1.00;;;;;;6289874;22;20397;-86
2023/05/05 02:13:44;;;;;;;6.10;4.17;;;11.20;1.00;;;;;;6291497;22;20463;-86
2023/05/05 02:16:11;;;;;;;8.50;3.60;;;10.70;1.00;;;;;;6290586;22;20405;-87
2023/05/05 02:18:39;;;;;;;4.97;4.07;;;10.90;1.00;;;;;;6293483;22;20408;-87
2023/05/05 02:21:07;;;;;;;5.50;3.80;;;10.90;1.00;;;;;;6302248;22;20444;-86
2023/05/05 02:23:36;;;;;;;5.93;4.33;;;11.00;1.00;;;;;;6294433;22;20400;-87
2023/05/05 02:26:06;;;;;;;7.50;4.33;;;10.80;1.00;;;;;;6292564;22;20401;-86
2023/05/05 02:28:39;;;;;;;10.10;4.37;;;10.90;1.00;;;;;;6290756;22;20563;-87
2023/05/05 02:31:08;;;;;;;11.40;5.03;;;10.80;1.00;;;;;;6292861;22;20407;-85
2023/05/05 02:33:36;;;;;;;5.57;3.23;;;11.10;1.00;;;;;;6300625;22;20412;-86
2023/05/05 02:36:11;;;;;;;7.90;4.30;;;10.80;1.00;;;;;;6291520;22;20957;-85
2023/05/05 02:38:42;;;;;;;6.37;3.90;;;10.80;1.00;;;;;;6291005;22;20385;-87
2023/05/05 02:41:13;;;;;;;6.30;4.30;;;10.80;1.00;;;;;;6297533;22;20429;-85
2023/05/05 02:43:42;;;;;;;6.20;4.40;;;10.80;1.00;;;;;;6300516;22;20819;-87
2023/05/05 02:46:09;;;;;;;11.60;5.03;;;10.80;1.00;;;;;;6296039;22;20383;-86
2023/05/05 02:48:37;;;;;;;6.80;4.70;;;;;;;;;;6293440;22;20383;-87
2023/05/05 02:51:04;;;;;;;6.60;4.17;;;10.70;1.00;;;;;;6293483;22;20921;-85
2023/05/05 02:53:32;;;;;;;4.43;3.40;;;;;;;;;;6293974;22;20405;-85
2023/05/05 02:56:10;;;;;;;8.50;4.03;;;10.70;1.00;;;;;;6292851;22;20415;-86
2023/05/05 02:58:42;;;;;;;8.30;4.23;;;10.70;1.00;;;;;;6293967;22;20410;-85
2023/05/05 03:01:20;;;;;;;5.77;4.57;;;10.60;1.00;;;;;;6293077;22;20815;-86
2023/05/05 03:03:55;;;;;;;5.20;4.20;;;10.50;1.00;;;;;;6291429;22;20384;-86
2023/05/05 03:06:25;;;;;;;4.07;3.63;;;10.30;1.00;;;;;;6290288;22;20386;-87
2023/05/05 03:08:56;;;;;;;7.07;4.50;;;10.70;1.00;;;;;;6291466;22;20360;-86
2023/05/05 03:11:28;;;;;;;7.80;4.93;;;10.60;1.00;;;;;;6291117;22;20385;-85
2023/05/05 03:14:07;;;;;;;7.50;4.37;;;10.50;1.00;;;;;;6292793;22;20393;-87
2023/05/05 03:16:36;;;;;;;7.27;5.13;;;10.60;1.00;;;;;;6293260;22;20389;-86
2023/05/05 03:19:03;;;;;;;12.83;5.13;;;10.50;1.00;;;;;;6292518;22;20443;-86
2023/05/05 03:21:32;;;;;;;6.50;4.90;;;10.60;1.00;;;;;;6293021;22;20456;-86
2023/05/05 03:23:58;;;;;;;5.97;4.53;;;10.50;1.00;;;;;;6292730;22;20405;-86
2023/05/05 03:26:27;;;;;;;8.50;4.90;;;10.50;1.00;;;;;;6300745;22;20392;-85
2023/05/05 03:28:54;;;;;;;5.00;4.10;;;10.20;1.00;;;;;;6305326;22;20364;-86
2023/05/05 03:31:20;;;;;;;7.60;4.50;;;10.40;1.00;;;;;;6306196;22;20396;-83
2023/05/05 03:33:47;;;;;;;8.77;4.80;;;10.40;1.00;;;;;;6307529;22;20392;-86
2023/05/05 03:36:14;;;;;;;7.60;4.90;;;10.40;1.00;;;;;;6306850;22;20405;-85
2023/05/05 03:38:41;;;;;;;6.70;4.93;;;;;;;;;;6300030;22;20401;-86
2023/05/05 03:41:08;;;;;;;7.33;4.77;;;10.40;1.00;;;;;;6292141;22;20467;-86
2023/05/05 03:43:38;;;;;;;5.97;4.40;;;10.40;1.00;;;;;;6290377;22;20408;-86
2023/05/05 03:46:05;;;;;;;7.97;4.37;;;10.40;1.00;;;;;;6291646;22;20420;-86
2023/05/05 03:48:32;;;;;;;8.77;4.40;;;10.30;1.00;;;;;;6291086;22;20427;-86
2023/05/05 03:50:59;;;;;;;11.37;5.40;;;10.30;1.00;;;;;;6290670;22;20822;-86
2023/05/05 03:53:26;;;;;;;14.80;10.07;;;10.30;1.00;;;;;;6291167;22;20432;-86
2023/05/05 03:55:53;;;;;;;5.40;4.60;;;10.20;1.00;;;;;;6290526;22;20519;-86
2023/05/05 03:58:20;;;;;;;6.77;4.23;;;10.20;1.00;;;;;;6289501;22;20410;-87
2023/05/05 04:00:48;;;;;;;9.03;4.97;;;10.50;1.00;;;;;;6298255;22;20441;-87
2023/05/05 04:03:15;;;;;;;4.57;3.40;;;;;;;;;;6298442;22;20412;-86
2023/05/05 04:05:42;;;;;;;6.67;4.53;;;10.30;1.00;;;;;;6295113;22;20401;-86
2023/05/05 04:08:09;;;;;;;10.43;4.83;;;10.20;1.00;;;;;;6297779;22;20408;-85
2023/05/05 04:10:36;;;;;;;5.87;5.07;;;10.20;1.00;;;;;;6294868;22;20490;-86
2023/05/05 04:13:04;;;;;;;5.67;4.93;;;;;;;;;;6293170;22;20440;-87
2023/05/05 04:15:31;;;;;;;4.50;4.10;;;10.20;1.00;;;;;;6298162;22;20407;-86
2023/05/05 04:17:59;;;;;;;6.70;3.90;;;10.20;1.00;;;;;;6302105;22;20380;-86
2023/05/05 04:20:26;;;;;;;6.60;4.00;;;10.10;1.00;;;;;;6294040;22;20448;-87
2023/05/05 04:22:53;;;;;;;10.77;5.20;;;10.20;1.00;;;;;;6290773;22;20382;-87
2023/05/05 04:25:19;;;;;;;9.73;5.97;;;10.20;1.00;;;;;;6291213;22;20411;-86
2023/05/05 04:27:46;;;;;;;5.20;3.93;;;10.20;1.00;;;;;;6291458;22;20412;-86
2023/05/05 04:30:14;;;;;;;5.60;4.00;;;10.20;1.00;;;;;;6288265;22;20801;-88
2023/05/05 04:32:41;;;;;;;7.50;5.27;;;9.90;1.00;;;;;;6292625;22;20376;-88
2023/05/05 04:35:09;;;;;;;7.47;5.53;;;10.30;1.00;;;;;;6305234;22;20372;-86
2023/05/05 04:37:41;;;;;;;9.70;4.83;;;10.40;1.00;;;;;;6307081;22;20385;-85
2023/05/05 04:40:09;;;;;;;5.50;4.20;;;10.10;1.00;;;;;;6306353;22;20421;-86
2023/05/05 04:42:36;;;;;;;13.73;5.47;;;;;;;;;;6304299;22;20416;-88
2023/05/05 04:45:04;;;;;;;8.30;4.53;;;;;;;;;;6300979;22;20405;-89
2023/05/05 04:47:31;;;;;;;11.73;4.43;;;10.00;1.00;;;;;;6301555;22;20409;-89
2023/05/05 04:49:58;;;;;;;11.60;4.17;;;;;;;;;;6299348;22;20410;-89
2023/05/05 04:52:26;;;;;;;6.50;4.73;;;10.40;1.00;;;;;;6286292;22;20467;-89
2023/05/05 04:54:55;;;;;;;7.87;5.17;;;10.50;1.00;;;;;;6286191;22;20412;-89
2023/05/05 04:57:22;;;;;;;7.43;4.87;;;;;;;;;;6285852;22;20391;-89
2023/05/05 04:59:50;;;;;;;9.97;4.80;;;;;;;;;;6286547;22;20407;-89
2023/05/05 05:02:17;;;;;;;10.03;4.63;;;;;;;;;;6285060;22;20522;-89
2023/05/05 05:04:44;;;;;;;11.57;5.30;;;;;;;;;;6285240;22;20413;-89
2023/05/05 05:07:13;;;;;;;10.53;4.90;;;;;;;;;;6283725;22;20433;-89
2023/05/05 05:09:41;;;;;;;6.73;6.13;;;10.60;1.00;;;;;;6284587;22;20429;-89
2023/05/05 05:12:08;;;;;;;13.27;4.87;;;10.70;1.00;;;;;;6285472;22;20797;-88
2023/05/05 05:14:37;;;;;;;9.70;4.87;;;10.80;1.00;;;;;;6287818;22;20376;-89
2023/05/05 05:17:03;;;;;;;8.13;4.80;;;10.80;1.00;;;;;;6300659;22;20435;-89
2023/05/05 05:19:30;;;;;;;20.33;5.80;;;10.80;1.00;;;;;;6285302;22;20941;-89
2023/05/05 05:21:57;;;;;;;7.03;3.93;;;10.80;1.00;;;;;;6286995;22;20441;-88
2023/05/05 05:24:25;;;;;;;9.73;5.80;;;10.90;1.00;;;;;;6285394;22;20428;-89
2023/05/05 05:26:53;;;;;;;7.80;5.17;;;10.90;1.00;;;;;;6285686;22;20417;-89
2023/05/05 05:29:20;;;;;;;9.53;5.30;;;11.20;1.00;;;;;;6286751;22;20412;-89
2023/05/05 05:31:48;;;;;;;8.63;5.47;;;;;;;;;;6284768;22;20495;-89
2023/05/05 05:34:15;;;;;;;7.43;4.87;;;11.10;99.90;;;;;;6290354;22;20380;-88
2023/05/05 05:36:42;;;;;;;10.50;5.73;;;;;;;;;;6286143;22;20468;-89
2023/05/05 05:39:10;;;;;;;15.10;8.77;;;;;;;;;;6284988;22;20416;-89
2023/05/05 05:41:37;;;;;;;8.67;5.13;;;;;;;;;;6291114;22;20938;-89
2023/05/05 05:44:05;;;;;;;10.73;5.03;;;11.30;99.90;;;;;;6291938;22;20401;-89
2023/05/05 05:46:33;;;;;;;9.50;5.30;;;;;;;;;;6294509;22;20405;-88
2023/05/05 05:48:59;;;;;;;12.00;7.53;;;11.20;99.90;;;;;;6300184;22;20401;-89
2023/05/05 05:51:27;;;;;;;10.63;7.70;;;;;;;;;;6305370;22;20413;-85
2023/05/05 05:53:54;;;;;;;9.63;5.17;;;;;;;;;;6305759;22;20400;-86
2023/05/05 05:56:21;;;;;;;11.10;7.10;;;;;;;;;;6306176;22;20416;-87
2023/05/05 05:58:48;;;;;;;8.30;5.17;;;11.40;99.90;;;;;;6305724;22;20390;-87
2023/05/05 06:01:16;;;;;;;9.63;6.20;;;11.50;99.90;;;;;;6303315;22;20430;-88
2023/05/05 06:03:43;;;;;;;12.93;6.47;;;11.40;99.90;;;;;;6293148;22;20396;-89
2023/05/05 06:06:10;;;;;;;12.80;5.53;;;;;;;;;;6289473;22;20385;-89
2023/05/05 06:08:37;;;;;;;6.53;5.10;;;;;;;;;;6304452;22;20401;-87
2023/05/05 06:11:07;;;;;;;8.33;4.83;;;11.70;99.90;;;;;;6289942;22;20500;-89
2023/05/05 06:13:34;;;;;;;4.97;4.43;;;12.00;1.00;;;;;;6286143;22;20397;-89
2023/05/05 06:16:01;;;;;;;9.70;4.97;;;11.80;99.90;;;;;;6289354;22;20407;-89
2023/05/05 06:18:29;;;;;;;16.10;6.60;;;12.00;99.90;;;;;;6283333;22;20416;-88
2023/05/05 06:20:56;;;;;;;10.27;5.20;;;11.80;1.00;;;;;;6284268;22;20454;-88
2023/05/05 06:23:23;;;;;;;7.53;4.57;;;11.90;99.90;;;;;;6285027;22;20409;-88
2023/05/05 06:25:50;;;;;;;9.03;5.20;;;11.90;99.90;;;;;;6284125;22;20405;-89
2023/05/05 06:28:17;;;;;;;8.23;5.00;;;11.90;99.90;;;;;;6284711;22;20403;-90
2023/05/05 06:30:50;;;;;;;10.27;5.20;;;12.10;1.00;;;;;;6283844;22;20494;-89
2023/05/05 06:33:17;;;;;;;16.07;5.97;;;12.20;99.90;;;;;;6283890;22;20405;-88
2023/05/05 06:35:46;;;;;;;6.30;4.50;;;12.30;99.90;;;;;;6283955;22;20391;-88
2023/05/05 06:38:13;;;;;;;8.43;5.20;;;12.40;1.00;;;;;;6283710;22;20509;-88
2023/05/05 06:40:40;;;;;;;9.37;4.67;;;;;;;;;;6284365;22;20439;-88
2023/05/05 06:43:07;;;;;;;8.20;4.60;;;13.20;1.00;;;;;;6304423;22;20397;-86
2023/05/05 06:45:35;;;;;;;7.70;4.83;;;;;;;;;;6305123;22;20377;-88
2023/05/05 06:48:01;;;;;;;7.50;5.13;;;12.30;99.90;;;;;;6302775;22;20397;-89
2023/05/05 06:50:28;;;;;;;6.60;4.43;;;12.30;99.90;;;;;;6288501;22;20939;-89
2023/05/05 06:52:57;;;;;;;11.30;5.03;;;12.30;99.90;;;;;;6283246;22;20477;-89
2023/05/05 06:55:26;;;;;;;8.70;4.80;;;12.40;1.00;;;;;;6285145;22;20408;-89
2023/05/05 06:57:53;;;;;;;7.50;5.00;;;;;;;;;;6285638;22;20416;-90
2023/05/05 07:00:21;;;;;;;12.63;5.07;;;12.60;99.90;;;;;;6294752;22;20470;-90
2023/05/05 07:02:48;;;;;;;9.27;5.07;;;;;;;;;;6298376;22;20452;-88
2023/05/05 07:05:15;;;;;;;9.73;4.87;;;13.00;99.90;;;;;;6304702;22;20396;-88
2023/05/05 07:07:51;;;;;;;16.00;9.03;;;13.50;1.00;;;;;;6291561;22;20404;-89
2023/05/05 07:10:20;;;;;;;6.23;5.63;;;13.10;99.90;;;;;;6283391;22;20498;-88
2023/05/05 07:12:47;;;;;;;11.23;5.27;;;13.00;99.90;;;;;;6280534;22;20411;-88
2023/05/05 07:15:14;;;;;;;7.03;4.43;;;13.00;1.00;;;;;;6282047;22;20401;-89
2023/05/05 07:17:43;;;;;;;5.83;5.07;;;12.90;99.90;;;;;;6281770;22;20476;-89
2023/05/05 07:20:11;;;;;;;9.57;6.93;;;12.90;99.90;;;;;;6282438;22;20469;-89
2023/05/05 07:22:38;;;;;;;9.60;5.07;;;;;;;;;;6286498;22;20429;-89
2023/05/05 07:25:07;;;;;;;6.27;4.00;;;13.10;1.00;;;;;;6303912;22;20408;-89
2023/05/05 07:27:38;;;;;;;5.43;4.30;;;13.00;99.90;;;;;;6303623;22;20389;-88
2023/05/05 07:30:09;;;;;;;7.47;4.33;;;13.00;99.90;;;;;;6288568;22;20449;-89
2023/05/05 07:32:39;;;;;;;10.93;5.30;;;13.40;1.00;;;;;;6283208;22;20453;-89
2023/05/05 07:35:07;;;;;;;6.60;5.13;;;13.20;99.90;;;;;;6292036;22;20439;-89
2023/05/05 07:37:33;;;;;;;6.80;4.90;;;13.70;1.00;;;;;;6295566;22;20397;-86
2023/05/05 07:40:00;;;;;;;7.83;4.73;;;13.90;99.90;;;;;;6305050;22;20417;-87
2023/05/05 07:42:30;;;;;;;9.50;6.83;;;;;;;;;;6304893;22;20602;-86
2023/05/05 07:44:58;;;;;;;7.97;5.93;;;13.60;99.90;;;;;;6301527;22;20379;-89
2023/05/05 07:47:25;;;;;;;14.10;6.43;;;;;;;;;;6302836;22;20413;-87
2023/05/05 07:49:52;;;;;;;13.20;6.60;;;13.60;1.00;;;;;;6304652;22;20405;-87
2023/05/05 07:52:19;;;;;;;15.13;4.67;;;;;;;;;;6300168;22;20444;-89
2023/05/05 07:54:47;;;;;;;5.83;4.97;;;;;;;;;;6288360;22;20405;-90
2023/05/05 07:57:20;;;;;;;12.07;4.47;;;13.90;99.90;;;;;;6284976;22;20417;-89
2023/05/05 07:59:52;;;;;;;10.93;4.83;;;13.80;99.90;;;;;;6284348;22;20433;-89
2023/05/05 08:02:22;;;;;;;14.23;5.20;;;13.80;99.90;;;;;;6289604;22;20433;-89
2023/05/05 08:04:49;;;;;;;11.50;5.87;;;;;;;;;;6303468;22;20397;-89
2023/05/05 08:07:19;;;;;;;6.40;5.23;;;;;;;;;;6306061;22;20388;-89
2023/05/05 08:09:47;;;;;;;16.60;5.47;;;;;;;;;;6295955;22;20421;-88
2023/05/05 08:12:37;;;;;;;8.40;4.90;;;14.10;99.90;;;;;;6290967;22;20484;-88
2023/05/05 08:15:05;;;;;;;9.70;5.20;;;14.80;99.90;;;;;;6285288;22;20411;-88
2023/05/05 08:17:46;;;;;;;7.60;4.70;;;15.90;99.90;;;;;;6295459;22;20412;-89
2023/05/05 08:20:13;;;;;;;6.07;5.47;;;14.30;99.90;;;;;;6290692;22;20424;-89
2023/05/05 08:22:41;;;;;;;7.63;4.70;;;14.50;99.90;;;;;;6286428;22;20414;-89
2023/05/05 08:25:09;;;;;;;7.90;5.10;;;14.40;99.90;;;;;;6298703;22;20404;-89
2023/05/05 08:27:37;;;;;;;5.63;5.13;;;14.60;99.90;;;;;;6297429;22;20809;-89
2023/05/05 08:30:05;;;;;;;7.37;5.00;;;14.60;99.90;;;;;;6294919;22;20429;-89
2023/05/05 08:32:32;;;;;;;8.07;5.30;;;14.50;99.90;;;;;;6287792;22;20401;-89
2023/05/05 08:35:02;;;;;;;9.47;4.80;;;14.70;99.90;;;;;;6304073;22;20376;-88
2023/05/05 08:37:29;;;;;;;5.53;4.97;;;14.80;99.90;;;;;;6300644;22;20401;-88
2023/05/05 08:39:57;;;;;;;9.63;5.13;;;14.90;99.90;;;;;;6287741;22;20482;-88
2023/05/05 08:42:24;;;;;;;7.93;5.17;;;;;;;;;;6284584;22;20431;-89
2023/05/05 08:44:51;;;;;;;7.93;4.87;;;15.10;99.90;;;;;;6284737;22;20444;-89
2023/05/05 08:47:18;;;;;;;8.00;4.97;;;;;;;;;;6287099;22;20436;-90
2023/05/05 08:49:48;;;;;;;11.60;4.63;;;15.30;1.00;;;;;;6284178;22;20822;-88
2023/05/05 08:52:21;;;;;;;12.00;7.90;;;15.60;99.90;;;;;;6285166;22;20379;-88
2023/05/05 08:54:55;;;;;;;5.80;5.20;;;15.60;99.90;;;;;;6287437;22;20415;-89
2023/05/05 08:57:36;;;;;;;12.50;5.30;;;15.60;99.90;;;;;;6300861;22;20390;-89
2023/05/05 09:00:04;;;;;;;12.30;5.23;;;15.70;99.90;;;;;;6295503;22;20447;-88
2023/05/05 09:02:32;;;;;;;10.20;5.87;;;15.70;99.90;;;;;;6305858;22;20488;-86
2023/05/05 09:05:03;;;;;;;9.60;4.87;;;15.60;99.90;;;;;;6300575;22;20417;-91
2023/05/05 09:07:32;;;;;;;9.13;4.63;;;15.80;99.90;;;;;;6285078;22;20416;-89
2023/05/05 09:09:59;;;;;;;10.30;5.10;;;15.90;99.90;;;;;;6284577;22;20480;-89
2023/05/05 09:12:30;;;;;;;8.93;5.00;;;15.90;99.90;;;;;;6284922;22;20475;-89
2023/05/05 09:14:58;;;;;;;6.57;4.97;;;;;;;;;;6285700;22;20526;-89
2023/05/05 09:17:26;;;;;;;8.17;4.57;;;16.40;99.90;;;;;;6286983;22;20425;-87
2023/05/05 09:20:01;;;;;;;7.30;5.00;;;16.30;99.90;;;;;;6291702;22;20452;-88
2023/05/05 09:22:39;;;;;;;9.63;4.77;;;16.30;99.90;;;;;;6281652;22;20416;-90
2023/05/05 09:25:08;;;;;;;7.67;4.60;;;16.40;99.90;;;;;;6282873;22;20393;-89
2023/05/05 09:27:41;;;;;;;8.03;5.43;;;16.40;99.90;;;;;;6289153;22;20414;-82
2023/05/05 09:30:09;;;;;;;7.53;5.30;;;16.40;99.90;;;;;;6292538;22;20443;-83
2023/05/05 09:32:47;;;;;;;6.67;4.53;;;16.30;99.90;;;;;;6291986;22;20401;-82
2023/05/05 09:35:15;;;;;;;7.40;5.43;;;16.50;99.90;;;;;;6291402;22;20890;-84
2023/05/05 09:37:44;;;;;;;9.63;4.93;;;16.60;99.90;;;;;;6292714;22;20915;-81
2023/05/05 09:40:15;;;;;;;8.63;5.30;;;17.10;1.00;;;;;;6292576;22;20415;-83
2023/05/05 09:42:43;;;;;;;7.37;5.67;;;16.80;99.90;;;;;;6291922;22;20456;-82
2023/05/05 09:45:26;;;;;;;10.37;4.80;;;16.90;99.90;;;;;;6291186;22;20401;-81
2023/05/05 09:47:53;;;;;;;7.53;5.00;;;16.70;99.90;;;;;;6291371;22;20393;-81
2023/05/05 09:50:20;;;;;;;10.80;5.63;;;16.70;99.90;;;;;;6289719;22;20980;-81
2023/05/05 09:53:07;;;;;;;6.20;5.60;;;16.60;99.90;;;;;;6290319;22;20488;-80
2023/05/05 09:55:34;;;;;;;12.90;7.43;;;16.70;99.90;;;;;;6290068;22;20389;-82
2023/05/05 09:58:19;;;;;;;8.00;5.40;;;16.90;99.90;;;;;;6291137;22;20476;-82
2023/05/05 10:00:46;;;;;;;14.40;7.70;;;17.20;99.90;;;;;;6289906;22;20778;-82
2023/05/05 10:03:13;;;;;;;8.60;5.57;;;17.50;99.90;;;;;;6290080;22;20497;-82
2023/05/05 10:05:51;;;;;;;11.90;7.60;;;17.70;99.90;;;;;;6291483;22;20401;-80
2023/05/05 10:08:24;;;;;;;5.67;5.00;;;17.80;99.90;;;;;;6299533;22;20409;-81
2023/05/05 10:10:53;;;;;;;11.07;6.13;;;17.80;99.90;;;;;;6292408;22;20422;-83
2023/05/05 10:13:21;;;;;;;12.10;5.97;;;17.90;99.90;;;;;;6289997;22;20396;-82
2023/05/05 10:15:50;;;;;;;16.70;5.40;;;18.10;99.90;;;;;;6288696;22;20509;-82
2023/05/05 10:18:21;;;;;;;7.70;4.60;;;18.40;99.90;;;;;;6290947;22;20523;-83
2023/05/05 10:20:53;;;;;;;8.03;5.00;;;18.50;99.90;;;;;;6290110;22;20428;-81
2023/05/05 10:23:23;;;;;;;5.13;4.70;;;18.00;99.90;;;;;;6289977;22;20435;-82
2023/05/05 10:25:55;;;;;;;9.40;6.60;;;18.10;99.90;;;;;;6290814;22;20420;-82
2023/05/05 10:28:31;;;;;;;7.67;5.10;;;18.00;99.90;;;;;;6289948;22;20427;-81
2023/05/05 10:31:01;;;;;;;8.63;4.60;;;18.00;99.90;;;;;;6288977;22;20527;-82
2023/05/05 10:33:39;;;;;;;13.10;5.03;;;18.00;99.90;;;;;;6287752;22;20381;-82
2023/05/05 10:36:07;;;;;;;6.90;5.00;;;18.00;99.90;;;;;;6290924;22;20424;-82
2023/05/05 10:38:35;;;;;;;9.40;4.57;;;18.00;99.90;;;;;;6296973;22;20412;-80
2023/05/05 10:41:03;;;;;;;9.53;6.23;;;18.00;99.90;;;;;;6299307;22;20428;-80
2023/05/05 10:43:31;;;;;;;6.20;5.47;;;17.80;99.90;;;;;;6294633;22;20444;-80
2023/05/05 10:45:59;;;;;;;8.77;5.63;;;17.90;99.90;;;;;;6288761;22;20424;-81
2023/05/05 10:48:35;;;;;;;5.20;4.40;;;18.00;99.90;;;;;;6292330;22;20393;-81
2023/05/05 10:51:21;;;;;;;10.47;5.10;;;18.00;99.90;;;;;;6285047;22;20508;-81
2023/05/05 10:53:59;;;;;;;7.20;5.20;;;18.10;99.90;;;;;;6282771;22;20404;-78
2023/05/05 10:56:31;;;;;;;5.50;4.50;;;18.30;99.90;;;;;;6283722;22;20906;-80
2023/05/05 10:58:58;;;;;;;8.30;4.60;;;18.50;99.90;;;;;;6280334;22;20851;-80
2023/05/05 11:01:30;;;;;;;11.10;4.40;;;18.50;1.00;;;;;;6288043;22;20956;-80
2023/05/05 11:04:19;;;;;;;6.07;4.63;;;18.50;99.90;;;;;;6295658;22;20443;-80
2023/05/05 11:07:26;;;;;;;5.20;4.70;;;18.40;99.90;;;;;;6281481;22;20912;-79
2023/05/05 11:10:00;;;;;;;6.30;5.00;;;18.60;99.90;;;;;;6280649;22;20470;-80
2023/05/05 11:12:27;;;;;;;5.73;4.30;;;18.70;99.90;;;;;;6251655;23;20378;-81
2023/05/05 11:15:34;;;;;;;9.00;5.60;;;18.90;99.90;;;;;;6253398;23;20810;-82
2023/05/05 11:18:02;;;;;;;7.50;4.43;;;18.90;99.90;;;;;;6261302;23;20413;-79
2023/05/05 11:21:15;;;;;;;9.20;4.83;;;19.20;99.90;;;;;;6258470;23;20496;-82
2023/05/05 11:23:46;;;;;;;6.63;5.03;;;19.10;99.90;;;;;;6268760;23;20422;-81
2023/05/05 11:26:15;;;;;;;5.83;3.73;;;19.10;99.90;;;;;;6271213;22;20390;-80
2023/05/05 11:28:57;;;;;;;9.00;4.33;;;19.20;99.90;;;;;;6268402;23;20402;-80
2023/05/05 11:31:24;;;;;;;7.83;5.33;;;19.20;99.90;;;;;;6255325;23;20532;-81
2023/05/05 11:33:52;;;;;;;5.47;4.40;;;19.40;99.90;;;;;;6253638;23;20436;-81
2023/05/05 11:36:20;;;;;;;7.70;4.57;;;19.40;99.90;;;;;;6251824;23;20406;-81
2023/05/05 11:39:03;;;;;;;5.37;4.63;;;19.40;99.90;;;;;;6252905;23;20410;-81
2023/05/05 11:42:05;;;;;;;7.43;4.00;;;19.30;99.90;;;;;;6252308;23;20426;-81
2023/05/05 11:44:34;;;;;;;13.30;9.60;;;19.30;99.90;;;;;;6253607;23;20505;-81
2023/05/05 11:47:32;;;;;;;12.83;7.33;;;19.30;99.90;;;;;;6267947;23;20462;-80
2023/05/05 11:50:14;;;;;;;6.70;5.23;;;19.60;99.90;;;;;;6271076;23;20389;-80
2023/05/05 11:52:41;;;;;;;5.37;3.90;;;19.60;99.90;;;;;;6269485;23;20382;-80
2023/05/05 11:55:09;;;;;;;11.87;8.83;;;19.30;1.00;;;;;;6270718;23;20409;-80
2023/05/05 11:57:37;;;;;;;15.10;5.57;;;19.40;99.90;;;;;;6270351;23;20414;-80
2023/05/05 12:00:06;;;;;;;11.07;6.03;;;19.40;99.90;;;;;;6269399;23;20473;-80
2023/05/05 12:02:33;;;;;;;6.33;5.73;;;19.50;99.90;;;;;;6265130;23;21023;-81
2023/05/05 12:05:00;;;;;;;10.50;7.90;;;19.40;99.90;;;;;;6260524;23;20409;-81
2023/05/05 12:07:29;;;;;;;13.40;9.30;;;19.70;99.90;;;;;;6257870;23;20406;-81
2023/05/05 12:09:56;;;;;;;8.93;4.67;;;19.70;99.90;;;;;;6256146;23;20464;-81
2023/05/05 12:12:35;;;;;;;9.37;4.33;;;19.60;99.90;;;;;;6256498;23;20422;-81
2023/05/05 12:15:04;;;;;;;7.53;6.13;;;19.60;99.90;;;;;;6260709;23;20386;-81
2023/05/05 12:17:43;;;;;;;4.90;4.30;;;19.70;99.90;;;;;;6264292;23;20402;-80
2023/05/05 12:20:11;;;;;;;10.80;7.57;;;20.10;1.00;;;;;;6263841;23;20378;-81
2023/05/05 12:22:39;;;;;;;7.13;6.00;;;20.20;99.90;;;;;;6263510;23;20437;-80
2023/05/05 12:25:07;;;;;;;6.40;4.63;;;19.80;1.00;;;;;;6274880;22;20410;-80
2023/05/05 12:27:35;;;;;;;5.10;3.83;;;20.00;99.90;;;;;;6268475;23;20406;-81
2023/05/05 12:30:15;;;;;;;10.97;4.03;;;19.60;99.90;;;;;;6273181;23;20393;-81
2023/05/05 12:32:42;;;;;;;4.03;3.73;;;19.80;99.90;;;;;;6262365;23;20414;-81
2023/05/05 12:35:10;;;;;;;8.50;3.77;;;19.70;99.90;;;;;;6260649;23;20408;-81
2023/05/05 12:37:38;;;;;;;7.70;3.93;;;20.10;1.00;;;;;;6272146;23;20406;-81
2023/05/05 12:40:07;;;;;;;5.30;4.10;;;19.40;99.90;;;;;;6273544;23;20406;-82
2023/05/05 12:42:39;;;;;;;6.23;4.27;;;19.70;99.90;;;;;;6270037;23;20417;-80
2023/05/05 12:45:17;;;;;;;14.03;3.93;;;19.70;99.90;;;;;;6260429;23;20779;-81
2023/05/05 12:47:45;;;;;;;4.57;4.00;;;19.80;99.90;;;;;;6259700;23;20422;-81
2023/05/05 12:50:12;;;;;;;12.67;4.90;;;19.70;1.00;;;;;;6260609;23;20421;-81
2023/05/05 12:52:43;;;;;;;4.13;3.50;;;19.80;99.90;;;;;;6260667;23;20429;-82
2023/05/05 12:55:11;;;;;;;13.47;3.90;;;20.20;1.00;;;;;;6272577;23;20378;-80
2023/05/05 12:57:38;;;;;;;6.57;4.07;;;19.80;99.90;;;;;;6273308;23;20386;-80
2023/05/05 13:00:16;;;;;;;7.03;4.00;;;20.10;1.00;;;;;;6269089;23;20445;-81
2023/05/05 13:02:45;;;;;;;4.37;3.57;;;19.80;99.90;;;;;;6260932;23;20401;-82
2023/05/05 13:05:12;;;;;;;5.20;3.63;;;19.90;99.90;;;;;;6261841;23;20421;-80
2023/05/05 13:07:50;;;;;;;9.07;4.00;;;19.50;1.00;;;;;;6265163;23;20418;-81
2023/05/05 13:10:17;;;;;;;8.07;5.63;;;20.60;1.00;;;;;;6266052;23;20386;-81
2023/05/05 13:12:44;;;;;;;6.47;5.33;;;19.60;99.90;;;;;;6260283;23;20410;-81
2023/05/05 13:15:12;;;;;;;11.10;6.80;;;19.50;99.90;;;;;;6260995;23;20401;-80
2023/05/05 13:17:39;;;;;;;5.90;4.10;;;19.50;99.90;;;;;;6258789;23;20402;-80